createdAt,value
2022-08-12T00:00:17.636Z,99786.69
2022-08-12T00:03:07.848Z,99787.25
2022-08-12T00:06:05.119Z,99777.78
2022-08-12T00:08:59.235Z,99767.88
2022-08-12T00:11:49.463Z,99764.38
2022-08-12T00:14:39.387Z,99761.28
2022-08-12T00:17:30.779Z,99760.91
2022-08-12T00:20:21.050Z,99759.91
2022-08-12T00:23:11.216Z,99762.22
2022-08-12T00:26:22.816Z,99753.16
2022-08-12T00:29:12.789Z,99756.50
2022-08-12T00:32:02.709Z,99755.91
2022-08-12T00:34:53.970Z,99754.94
2022-08-12T00:37:44.191Z,99760.28
2022-08-12T00:40:34.364Z,99761.97
2022-08-12T00:43:07.064Z,99756.88
2022-08-12T00:45:58.586Z,99753.81
2022-08-12T00:48:31.259Z,99763.53
2022-08-12T00:51:03.229Z,99766.22
2022-08-12T00:53:35.768Z,99760.47
2022-08-12T00:56:07.416Z,99753.91
2022-08-12T00:58:46.162Z,99757.81
2022-08-12T01:01:18.086Z,99751.47
2022-08-12T01:04:08.801Z,99754.38
2022-08-12T01:07:00.287Z,99749.44
2022-08-12T01:09:50.374Z,99755.41
2022-08-12T01:12:21.930Z,99752.94
2022-08-12T01:14:56.131Z,99755.84
2022-08-12T01:17:28.154Z,99753.59
2022-08-12T01:20:06.018Z,99758.97
2022-08-12T01:22:37.957Z,99756.91
2022-08-12T01:25:21.216Z,99767.38
2022-08-12T01:27:53.098Z,99758.94
2022-08-12T01:30:26.355Z,99764.31
2022-08-12T01:32:59.345Z,99754.41
2022-08-12T01:35:33.076Z,99751.94
2022-08-12T01:38:08.410Z,99762.44
2022-08-12T01:40:46.945Z,99755.06
2022-08-12T01:43:21.575Z,99751.41
2022-08-12T01:46:04.238Z,99745.63
2022-08-12T01:49:01.358Z,99747.69
2022-08-12T01:52:15.086Z,99742.53
2022-08-12T01:54:39.743Z,99741.09
2022-08-12T01:57:11.247Z,99746.44
2022-08-12T02:00:01.416Z,99739.25
2022-08-12T02:02:39.735Z,99751.22
2022-08-12T02:05:48.414Z,99753.47
2022-08-12T02:08:52.302Z,99742.38
2022-08-12T02:11:44.793Z,99746.91
2022-08-12T02:14:16.314Z,99746.28
2022-08-12T02:17:06.374Z,99738.25
2022-08-12T02:20:04.003Z,99738.25
2022-08-12T02:22:41.275Z,99734.38
2022-08-12T02:25:15.639Z,99730.47
2022-08-12T02:27:51.842Z,99732.72
2022-08-12T02:30:24.626Z,99727.00
2022-08-12T02:32:56.965Z,99730.31
2022-08-12T02:35:30.203Z,99729.47
2022-08-12T02:38:04.365Z,99730.69
2022-08-12T02:40:37.634Z,99731.56
2022-08-12T02:43:14.930Z,99728.66
2022-08-12T02:45:51.260Z,99725.59
2022-08-12T02:48:28.680Z,99730.75
2022-08-12T02:51:07.110Z,99732.38
2022-08-12T02:53:39.281Z,99731.56
2022-08-12T02:56:12.508Z,99737.94
2022-08-12T02:58:46.187Z,99739.16
2022-08-12T03:01:22.185Z,99739.97
2022-08-12T03:03:55.959Z,99733.22
2022-08-12T03:06:32.201Z,99739.78
2022-08-12T03:09:05.558Z,99735.44
2022-08-12T03:11:42.854Z,99731.56
2022-08-12T03:14:21.691Z,99733.81
2022-08-12T03:17:09.633Z,99729.91
2022-08-12T03:20:10.315Z,99736.66
2022-08-12T03:22:40.567Z,99730.69
2022-08-12T03:25:17.034Z,99728.22
2022-08-12T03:27:55.668Z,99732.53
2022-08-12T03:30:28.644Z,99732.53
2022-08-12T03:33:01.318Z,99728.81
2022-08-12T03:35:40.404Z,99726.56
2022-08-12T03:38:16.233Z,99734.16
2022-08-12T03:41:18.154Z,99728.81
2022-08-12T03:44:20.079Z,99733.13
2022-08-12T03:47:39.097Z,99728.63
2022-08-12T03:50:31.627Z,99734.78
2022-08-12T03:53:22.999Z,99739.09
2022-08-12T03:56:13.423Z,99738.09
2022-08-12T03:59:03.780Z,99746.94
2022-08-12T04:01:40.889Z,99736.63
2022-08-12T04:04:12.595Z,99748.97
2022-08-12T04:06:47.310Z,99752.06
2022-08-12T04:09:21.063Z,99752.06
2022-08-12T04:12:11.041Z,99749.59
2022-08-12T04:14:42.510Z,99758.66
2022-08-12T04:17:15.081Z,99749.19
2022-08-12T04:19:47.905Z,99755.19
2022-08-12T04:22:19.386Z,99752.47
2022-08-12T04:24:53.551Z,99760.69
2022-08-12T04:27:25.492Z,99758.22
2022-08-12T04:30:29.704Z,99751.84
2022-08-12T04:32:51.088Z,99760.13
2022-08-12T04:35:23.442Z,99756.63
2022-08-12T04:37:58.001Z,99749.84
2022-08-12T04:40:33.176Z,99750.91
2022-08-12T04:43:05.515Z,99749.84
2022-08-12T04:45:37.796Z,99753.34
2022-08-12T04:48:09.313Z,99753.53
2022-08-12T04:50:41.505Z,99763.81
2022-08-12T04:53:13.360Z,99758.88
2022-08-12T04:55:46.655Z,99755.13
2022-08-12T04:58:30.023Z,99756.38
2022-08-12T05:01:01.618Z,99760.88
2022-08-12T05:03:46.406Z,99758.59
2022-08-12T05:06:26.298Z,99762.25
2022-08-12T05:09:01.935Z,99760.09
2022-08-12T05:11:54.093Z,99756.88
2022-08-12T05:14:26.103Z,99751.81
2022-08-12T05:16:57.573Z,99756.22
2022-08-12T05:19:30.377Z,99744.06
2022-08-12T05:22:02.153Z,99749.16
2022-08-12T05:24:35.699Z,99761.38
2022-08-12T05:27:07.190Z,99764.28
2022-08-12T05:30:07.087Z,99757.81
2022-08-12T05:32:31.711Z,99763.88
2022-08-12T05:35:09.228Z,99758.44
2022-08-12T05:37:40.742Z,99764.97
2022-08-12T05:40:14.730Z,99769.56
2022-08-12T05:42:46.876Z,99769.94
2022-08-12T05:45:18.628Z,99774.81
2022-08-12T05:47:53.588Z,99777.16
2022-08-12T05:50:28.497Z,99765.19
2022-08-12T05:53:00.081Z,99773.03
2022-08-12T05:55:31.904Z,99778.84
2022-08-12T05:58:04.845Z,99776.97
2022-08-12T06:00:37.214Z,99778.84
2022-08-12T06:03:09.029Z,99784.00
2022-08-12T06:05:52.614Z,99784.09
2022-08-12T06:08:27.417Z,99785.84
2022-08-12T06:10:58.920Z,99779.50
2022-08-12T06:13:54.241Z,99766.88
2022-08-12T06:16:23.198Z,99769.00
2022-08-12T06:18:54.803Z,99770.69
2022-08-12T06:21:26.329Z,99767.22
2022-08-12T06:23:58.338Z,99768.63
2022-08-12T06:26:29.934Z,99769.63
2022-08-12T06:29:04.260Z,99775.41
2022-08-12T06:31:38.933Z,99772.22
2022-08-12T06:35:25.431Z,99771.31
2022-08-12T06:37:02.377Z,99766.47
2022-08-12T06:39:34.315Z,99764.28
2022-08-12T06:42:44.668Z,99760.56
2022-08-12T06:45:16.399Z,99771.50
2022-08-12T06:47:48.862Z,99771.06
2022-08-12T06:50:20.516Z,99771.47
2022-08-12T06:52:52.942Z,99773.66
2022-08-12T06:55:26.070Z,99770.81
2022-08-12T06:58:07.799Z,99760.69
2022-08-12T07:00:46.617Z,99771.19
2022-08-12T07:03:36.646Z,99772.72
2022-08-12T07:06:11.651Z,99780.09
2022-08-12T07:08:44.098Z,99775.84
2022-08-12T07:11:15.920Z,99778.16
2022-08-12T07:14:11.968Z,99773.50
2022-08-12T07:16:55.647Z,99778.25
2022-08-12T07:19:45.040Z,99777.41
2022-08-12T07:22:17.807Z,99780.34
2022-08-12T07:25:09.250Z,99773.38
2022-08-12T07:27:42.566Z,99771.38
2022-08-12T07:30:14.450Z,99770.44
2022-08-12T07:32:49.698Z,99772.91
2022-08-12T07:35:21.249Z,99769.00
2022-08-12T07:37:53.288Z,99777.50
2022-08-12T07:40:25.122Z,99769.09
2022-08-12T07:43:06.363Z,99763.88
2022-08-12T07:45:38.224Z,99766.16
2022-08-12T07:48:09.697Z,99768.28
2022-08-12T07:50:41.231Z,99764.84
2022-08-12T07:53:12.700Z,99769.91
2022-08-12T07:55:44.277Z,99761.97
2022-08-12T07:58:15.806Z,99764.22
2022-08-12T08:00:49.827Z,99748.81
2022-08-12T08:03:25.829Z,99751.28
2022-08-12T08:06:01.545Z,99742.38
2022-08-12T08:08:33.054Z,99747.31
2022-08-12T08:11:23.231Z,99740.38
2022-08-12T08:13:54.698Z,99740.94
2022-08-12T08:16:26.257Z,99743.88
2022-08-12T08:18:59.386Z,99738.03
2022-08-12T08:21:35.052Z,99744.28
2022-08-12T08:24:15.677Z,99739.50
2022-08-12T08:26:48.530Z,99741.38
2022-08-12T08:29:24.324Z,99729.72
2022-08-12T08:31:58.746Z,99733.59
2022-08-12T08:34:53.630Z,99736.72
2022-08-12T08:37:26.943Z,99736.09
2022-08-12T08:40:25.586Z,99737.75
2022-08-12T08:42:57.153Z,99729.50
2022-08-12T08:45:28.813Z,99735.81
2022-08-12T08:48:02.459Z,99726.66
2022-08-12T08:50:33.979Z,99732.59
2022-08-12T08:53:06.501Z,99733.34
2022-08-12T08:56:03.578Z,99724.28
2022-08-12T08:58:29.586Z,99737.78
2022-08-12T09:01:02.677Z,99732.00
2022-08-12T09:05:08.475Z,99732.84
2022-08-12T09:06:36.011Z,99725.66
2022-08-12T09:09:13.478Z,99729.81
2022-08-12T09:12:11.132Z,99720.28
2022-08-12T09:14:51.019Z,99720.09
2022-08-12T09:17:24.095Z,99727.59
2022-08-12T09:19:58.338Z,99721.69
2022-08-12T09:22:30.389Z,99732.34
2022-08-12T09:25:07.404Z,99733.44
2022-08-12T09:30:41.964Z,99718.78
2022-08-12T09:34:24.674Z,99723.00
2022-08-12T09:36:05.920Z,99724.63
2022-08-12T09:38:37.678Z,99722.19
2022-08-12T09:42:32.716Z,99724.28
2022-08-12T09:45:18.361Z,99713.00
2022-08-12T09:47:45.538Z,99710.47
2022-08-12T09:50:30.696Z,99703.19
2022-08-12T09:53:16.382Z,99704.56
2022-08-12T09:56:06.347Z,99701.19
2022-08-12T09:58:56.993Z,99698.66
2022-08-12T10:01:35.392Z,99696.59
2022-08-12T10:04:24.024Z,99703.16
2022-08-12T10:06:57.789Z,99686.28
2022-08-12T10:09:58.585Z,99677.22
2022-08-12T10:12:39.795Z,99682.09
2022-08-12T10:16:00.919Z,99684.19
2022-08-12T10:18:06.939Z,99664.31
2022-08-12T10:20:40.243Z,99657.78
2022-08-12T10:23:12.701Z,99660.03
2022-08-12T10:26:36.102Z,99664.22
2022-08-12T10:30:01.202Z,99665.56
2022-08-12T10:32:21.202Z,99663.56
2022-08-12T10:35:00.874Z,99663.25
2022-08-12T10:38:34.247Z,99660.00
2022-08-12T10:40:31.449Z,99661.84
2022-08-12T10:43:25.069Z,99654.41
2022-08-12T10:45:58.244Z,99665.03
2022-08-12T10:48:34.567Z,99653.78
2022-08-12T10:52:04.400Z,99657.16
2022-08-12T10:54:00.560Z,99653.84
2022-08-12T10:56:35.350Z,99643.50
2022-08-12T10:59:11.049Z,99631.22
2022-08-12T11:04:17.400Z,99636.41
2022-08-12T11:04:44.761Z,99631.63
2022-08-12T11:08:37.320Z,99619.72
2022-08-12T11:10:13.868Z,99630.59
2022-08-12T11:12:59.431Z,99623.94
2022-08-12T11:16:03.405Z,99634.38
2022-08-12T11:18:24.133Z,99635.19
2022-08-12T11:20:57.826Z,99633.28
2022-08-12T11:23:36.668Z,99637.06
2022-08-12T11:26:09.254Z,99628.66
2022-08-12T11:28:40.803Z,99638.13
2022-08-12T11:31:13.943Z,99633.94
2022-08-12T11:34:06.624Z,99633.06
2022-08-12T11:36:39.370Z,99628.78
2022-08-12T11:39:12.563Z,99624.44
2022-08-12T11:41:44.330Z,99621.72
2022-08-12T11:44:37.343Z,99610.66
2022-08-12T11:47:09.638Z,99624.84
2022-08-12T11:49:41.296Z,99609.41
2022-08-12T11:52:53.946Z,99610.75
2022-08-12T11:55:15.001Z,99606.66
2022-08-12T11:58:17.186Z,99607.72
2022-08-12T12:03:43.917Z,99595.50
2022-08-12T12:06:20.764Z,99584.53
2022-08-12T12:08:55.136Z,99584.03
2022-08-12T12:11:26.733Z,99579.69
2022-08-12T12:14:08.582Z,99591.47
2022-08-12T12:16:49.887Z,99588.00
2022-08-12T12:19:21.675Z,99582.09
2022-08-12T12:21:55.462Z,99577.22
2022-08-12T12:24:27.338Z,99580.41
2022-08-12T12:27:00.674Z,99574.63
2022-08-12T12:30:18.915Z,99558.97
2022-08-12T12:32:29.212Z,99567.78
2022-08-12T12:35:14.456Z,99554.25
2022-08-12T12:38:05.341Z,99555.88
2022-08-12T12:40:44.925Z,99573.81
2022-08-12T12:43:16.714Z,99559.72
2022-08-12T12:46:00.687Z,99554.28
2022-08-12T12:48:32.344Z,99559.06
2022-08-12T12:51:49.324Z,99547.38
2022-08-12T12:54:09.953Z,99542.66
2022-08-12T12:56:42.848Z,99529.19
2022-08-12T12:59:33.703Z,99531.22
2022-08-12T13:02:10.221Z,99533.19
2022-08-12T13:04:41.737Z,99531.19
2022-08-12T13:07:18.029Z,99540.34
2022-08-12T13:09:50.343Z,99532.84
2022-08-12T13:12:22.094Z,99542.38
2022-08-12T13:14:53.568Z,99530.94
2022-08-12T13:17:25.130Z,99525.69
2022-08-12T13:20:37.522Z,99536.50
2022-08-12T13:23:36.315Z,99530.84
2022-08-12T13:26:02.154Z,99527.63
2022-08-12T13:28:33.669Z,99521.13
2022-08-12T13:31:06.470Z,99529.53
2022-08-12T13:34:32.385Z,99549.69
2022-08-12T13:36:30.891Z,99536.13
2022-08-12T13:39:02.854Z,99537.22
2022-08-12T13:41:35.660Z,99520.13
2022-08-12T13:44:10.631Z,99523.09
2022-08-12T13:46:42.920Z,99525.81
2022-08-12T13:49:17.297Z,99519.59
2022-08-12T13:51:53.650Z,99530.69
2022-08-12T13:54:25.697Z,99510.88
2022-08-12T13:56:57.253Z,99509.22
2022-08-12T13:59:28.911Z,99513.00
2022-08-12T14:02:22.506Z,99512.13
2022-08-12T14:04:56.891Z,99514.09
2022-08-12T14:07:30.950Z,99513.78
2022-08-12T14:10:36.998Z,99514.94
2022-08-12T14:14:02.597Z,99503.50
2022-08-12T14:16:03.351Z,99503.19
2022-08-12T14:18:36.322Z,99494.19
2022-08-12T14:21:12.168Z,99499.63
2022-08-12T14:24:05.387Z,99497.16
2022-08-12T14:26:39.757Z,99490.63
2022-08-12T14:29:21.600Z,99501.75
2022-08-12T14:32:02.804Z,99496.31
2022-08-12T14:34:34.898Z,99484.63
2022-08-12T14:37:07.211Z,99484.88
2022-08-12T14:39:50.604Z,99492.00
2022-08-12T14:42:22.425Z,99485.28
2022-08-12T14:45:01.295Z,99474.50
2022-08-12T14:47:35.001Z,99479.09
2022-08-12T14:50:58.796Z,99489.97
2022-08-12T14:59:23.735Z,99475.88
2022-08-12T15:01:54.524Z,99487.03
2022-08-12T15:04:29.211Z,99475.84
2022-08-12T15:07:01.347Z,99479.94
2022-08-12T15:09:32.819Z,99482.31
2022-08-12T15:12:05.433Z,99482.34
2022-08-12T15:14:46.028Z,99478.84
2022-08-12T15:17:37.496Z,99478.34
2022-08-12T15:20:11.996Z,99487.34
2022-08-12T15:23:00.708Z,99488.44
2022-08-12T15:25:40.162Z,99478.13
2022-08-12T15:28:23.230Z,99472.41
2022-08-12T15:30:55.779Z,99476.75
2022-08-12T15:33:45.309Z,99470.53
2022-08-12T15:36:36.577Z,99472.69
2022-08-12T15:39:17.758Z,99455.84
2022-08-12T15:41:50.897Z,99460.19
2022-08-12T15:44:42.273Z,99459.13
2022-08-12T15:47:16.279Z,99453.44
2022-08-12T15:49:59.593Z,99464.28
2022-08-12T15:52:32.633Z,99470.28
2022-08-12T15:55:11.711Z,99467.56
2022-08-12T15:58:01.951Z,99450.72
2022-08-12T16:00:37.801Z,99450.16
2022-08-12T16:03:13.560Z,99446.06
2022-08-12T16:06:11.487Z,99447.16
2022-08-12T16:08:42.450Z,99435.75
2022-08-12T16:11:18.843Z,99442.84
2022-08-12T16:13:52.020Z,99439.84
2022-08-12T16:16:25.042Z,99442.06
2022-08-12T16:19:00.781Z,99440.69
2022-08-12T16:21:52.812Z,99442.88
2022-08-12T16:24:30.010Z,99443.41
2022-08-12T16:27:01.498Z,99438.25
2022-08-12T16:29:53.224Z,99446.13
2022-08-12T16:32:31.575Z,99442.34
2022-08-12T16:35:08.229Z,99448.03
2022-08-12T16:38:27.726Z,99432.84
2022-08-12T16:40:46.464Z,99431.75
2022-08-12T16:43:28.191Z,99433.13
2022-08-12T16:46:05.194Z,99425.25
2022-08-12T16:48:55.030Z,99432.56
2022-08-12T16:51:26.750Z,99442.03
2022-08-12T16:54:00.331Z,99437.44
2022-08-12T16:56:37.241Z,99435.28
2022-08-12T16:59:16.009Z,99430.41
2022-08-12T17:01:50.159Z,99421.19
2022-08-12T17:04:24.264Z,99423.34
2022-08-12T17:06:55.974Z,99427.16
2022-08-12T17:09:34.335Z,99418.19
2022-08-12T17:12:12.083Z,99423.34
2022-08-12T17:14:47.299Z,99423.63
2022-08-12T17:17:39.477Z,99422.81
2022-08-12T17:20:28.961Z,99419.53
2022-08-12T17:23:09.889Z,99416.56
2022-08-12T17:25:45.722Z,99422.50
2022-08-12T17:28:21.337Z,99421.69
2022-08-12T17:30:59.786Z,99422.22
2022-08-12T17:33:33.676Z,99428.72
2022-08-12T17:36:07.300Z,99421.94
2022-08-12T17:38:43.415Z,99428.97
2022-08-12T17:41:56.262Z,99424.63
2022-08-12T17:44:16.988Z,99434.63
2022-08-12T17:46:53.781Z,99433.53
2022-08-12T17:50:01.920Z,99433.25
2022-08-12T17:52:20.853Z,99438.38
2022-08-12T17:54:53.021Z,99435.66
2022-08-12T17:57:29.225Z,99444.34
2022-08-12T18:00:01.060Z,99439.44
2022-08-12T18:02:36.310Z,99450.81
2022-08-12T18:05:10.027Z,99441.56
2022-08-12T18:07:45.989Z,99445.91
2022-08-12T18:10:42.894Z,99440.75
2022-08-12T18:13:37.801Z,99436.94
2022-08-12T18:16:10.124Z,99440.19
2022-08-12T18:18:44.481Z,99437.97
2022-08-12T18:21:16.010Z,99439.88
2022-08-12T18:23:54.046Z,99445.53
2022-08-12T18:26:27.132Z,99446.06
2022-08-12T18:28:58.901Z,99442.53
2022-08-12T18:31:44.697Z,99454.97
2022-08-12T18:34:24.100Z,99454.41
2022-08-12T18:36:59.586Z,99458.19
2022-08-12T18:40:03.256Z,99459.50
2022-08-12T18:42:35.099Z,99465.69
2022-08-12T18:45:08.047Z,99463.53
2022-08-12T18:47:46.871Z,99466.22
2022-08-12T18:50:24.702Z,99465.38
2022-08-12T18:52:56.658Z,99470.72
2022-08-12T18:55:37.364Z,99471.25
2022-08-12T18:58:11.604Z,99475.00
2022-08-12T19:00:45.992Z,99466.84
2022-08-12T19:03:38.799Z,99477.34
2022-08-12T19:06:10.906Z,99476.81
2022-08-12T19:08:49.300Z,99482.97
2022-08-12T19:11:40.442Z,99476.69
2022-08-12T19:14:27.980Z,99475.03
2022-08-12T19:17:02.129Z,99466.00
2022-08-12T19:19:37.235Z,99474.41
2022-08-12T19:22:13.557Z,99479.47
2022-08-12T19:25:19.549Z,99478.38
2022-08-12T19:27:55.606Z,99482.66
2022-08-12T19:30:48.613Z,99482.34
2022-08-12T19:33:24.155Z,99474.19
2022-08-12T19:36:24.559Z,99472.81
2022-08-12T19:38:56.465Z,99479.00
2022-08-12T19:41:42.619Z,99475.66
2022-08-12T19:44:16.619Z,99484.78
2022-08-12T19:46:53.181Z,99480.66
2022-08-12T19:49:25.515Z,99476.25
2022-08-12T19:51:57.113Z,99475.38
2022-08-12T19:54:30.540Z,99476.41
2022-08-12T19:57:02.333Z,99476.06
2022-08-12T19:59:42.940Z,99476.25
2022-08-12T20:02:32.841Z,99478.09
2022-08-12T20:06:02.856Z,99475.09
2022-08-12T20:08:00.545Z,99481.00
2022-08-12T20:10:36.205Z,99476.34
2022-08-12T20:13:19.187Z,99477.34
2022-08-12T20:15:59.903Z,99485.94
2022-08-12T20:18:53.365Z,99481.22
2022-08-12T20:21:24.737Z,99483.25
2022-08-12T20:24:01.002Z,99480.00
2022-08-12T20:26:34.404Z,99485.91
2022-08-12T20:29:06.073Z,99487.19
2022-08-12T20:31:38.186Z,99479.53
2022-08-12T20:34:12.099Z,99485.66
2022-08-12T20:36:45.112Z,99484.53
2022-08-12T20:39:52.068Z,99480.13
2022-08-12T20:42:09.801Z,99477.03
2022-08-12T20:44:42.018Z,99479.66
2022-08-12T20:47:18.362Z,99477.19
2022-08-12T20:49:55.995Z,99475.25
2022-08-12T20:52:34.008Z,99480.78
2022-08-12T20:55:15.813Z,99481.28
2022-08-12T20:58:02.755Z,99485.28
2022-08-12T21:00:36.450Z,99482.50
2022-08-12T21:03:28.350Z,99486.75
2022-08-12T21:06:24.328Z,99488.28
2022-08-12T21:09:00.004Z,99487.69
2022-08-12T21:11:32.730Z,99488.44
2022-08-12T21:14:04.999Z,99488.31
2022-08-12T21:16:42.207Z,99492.56
2022-08-12T21:19:22.287Z,99483.38
2022-08-12T21:21:58.806Z,99481.41
2022-08-12T21:24:32.267Z,99484.56
2022-08-12T21:27:07.515Z,99483.66
2022-08-12T21:29:54.945Z,99486.25
2022-08-12T21:32:36.054Z,99491.56
2022-08-12T21:35:09.819Z,99487.94
2022-08-12T21:37:42.505Z,99494.63
2022-08-12T21:40:36.762Z,99489.88
2022-08-12T21:43:09.847Z,99490.00
2022-08-12T21:45:46.409Z,99490.25
2022-08-12T21:48:29.328Z,99491.56
2022-08-12T21:51:00.840Z,99491.41
2022-08-12T21:54:07.629Z,99492.47
2022-08-12T21:56:34.682Z,99502.66
2022-08-12T21:59:07.341Z,99504.19
2022-08-12T22:01:49.491Z,99502.19
2022-08-12T22:04:40.033Z,99508.06
2022-08-12T22:07:13.421Z,99504.91
2022-08-12T22:09:57.183Z,99504.56
2022-08-12T22:12:37.616Z,99514.19
2022-08-12T22:15:09.682Z,99512.44
2022-08-12T22:17:55.569Z,99511.50
2022-08-12T22:20:29.664Z,99514.09
2022-08-12T22:23:07.590Z,99511.25
2022-08-12T22:25:53.429Z,99510.91
2022-08-12T22:28:43.742Z,99513.50
2022-08-12T22:31:16.189Z,99511.53
2022-08-12T22:33:54.520Z,99512.19
2022-08-12T22:36:31.075Z,99512.06
2022-08-12T22:39:08.888Z,99510.28
2022-08-12T22:42:00.535Z,99512.16
2022-08-12T22:44:54.118Z,99508.53
2022-08-12T22:47:55.052Z,99511.22
2022-08-12T22:50:28.914Z,99504.47
2022-08-12T22:53:16.984Z,99514.28
2022-08-12T22:55:59.846Z,99506.75
2022-08-12T22:58:41.268Z,99512.63
2022-08-12T23:01:51.586Z,99512.25
2022-08-12T23:04:12.079Z,99501.63
2022-08-12T23:06:48.992Z,99502.06
2022-08-12T23:09:26.301Z,99502.91
2022-08-12T23:12:06.413Z,99509.78
2022-08-12T23:14:40.694Z,99504.84
2022-08-12T23:17:21.353Z,99509.66
2022-08-12T23:20:03.949Z,99507.06
2022-08-12T23:22:36.957Z,99505.88
2022-08-12T23:25:20.958Z,99510.28
2022-08-12T23:28:30.109Z,99505.19
2022-08-12T23:31:04.418Z,99503.16
2022-08-12T23:34:01.915Z,99498.47
2022-08-12T23:36:39.150Z,99496.44
2022-08-12T23:40:13.940Z,99494.22
2022-08-12T23:42:18.258Z,99476.94
2022-08-12T23:44:53.698Z,99477.97
2022-08-12T23:47:25.210Z,99478.69
2022-08-12T23:50:03.152Z,99475.38
2022-08-12T23:52:46.620Z,99477.72
2022-08-12T23:55:24.785Z,99475.72
2022-08-12T23:58:21.615Z,99484.00
